Time;durP1;ratioP1;P1;durP2;ratioP2;P2;SDS_P1;SDS_P2;PMS_P1;PMS_P2;Temp;Humidity;BMP_temperature;BMP_pressure;BME280_temperature;BME280_humidity;BME280_pressure;Samples;Min_cycle;Max_cycle;Signal;HPM_P1;HPM_P2
2021/05/18 00:01:43;;;;;;;1.58;1.48;;;;;;;9.14;85.94;100021.56;5069152;28;20782;-85
2021/05/18 00:04:21;;;;;;;2.15;1.45;;;;;;;9.11;86.45;100022.94;5059471;28;20044;-85
2021/05/18 00:06:54;;;;;;;2.20;1.63;;;;;;;9.09;86.19;100022.44;5065776;28;20056;-86
2021/05/18 00:12:17;;;;;;;1.67;1.50;;;;;;;9.07;86.95;100037.38;5070850;28;20573;-86
2021/05/18 00:14:50;;;;;;;2.70;1.70;;;;;;;9.09;86.35;100035.22;5069088;28;20040;-85
2021/05/18 00:17:17;;;;;;;;;;;;;;;9.09;86.73;100037.94;5061946;28;20052;-86
2021/05/18 00:19:51;;;;;;;2.10;1.75;;;;;;;8.95;86.53;100013.34;5082271;28;19924;-86
2021/05/18 00:22:19;;;;;;;2.40;1.90;;;;;;;9.05;87.99;100048.53;5062838;28;20043;-84
2021/05/18 00:24:52;;;;;;;3.75;2.17;;;;;;;9.05;88.05;100042.31;5065822;28;20052;-86
2021/05/18 00:27:25;;;;;;;2.40;1.77;;;;;;;9.09;87.66;100051.50;5064808;28;20040;-86
2021/05/18 00:29:58;;;;;;;3.60;2.20;;;;;;;9.03;87.26;100045.28;5064138;28;20040;-86
2021/05/18 00:32:31;;;;;;;3.75;2.42;;;;;;;9.00;88.26;100052.13;5052811;28;20064;-86
2021/05/18 00:35:07;;;;;;;3.45;2.50;;;;;;;9.05;87.97;100061.31;5083757;28;20041;-85
2021/05/18 00:37:41;;;;;;;2.50;2.10;;;;;;;9.06;87.85;100062.91;5064302;28;20059;-85
2021/05/18 00:40:17;;;;;;;2.47;2.15;;;;;;;9.02;88.03;100049.91;5057696;28;20516;-85
2021/05/18 00:42:51;;;;;;;4.60;2.40;;;;;;;9.01;87.76;100059.13;5060767;28;20416;-85
2021/05/18 00:45:30;;;;;;;3.33;2.20;;;;;;;9.02;88.01;100065.41;5069914;28;20061;-85
2021/05/18 00:48:05;;;;;;;3.25;2.50;;;;;;;8.95;89.01;100067.59;5070382;28;20037;-85
2021/05/18 00:50:41;;;;;;;4.18;2.42;;;;;;;8.97;88.52;100074.38;5071216;28;20056;-83
2021/05/18 00:53:10;;;;;;;2.80;2.15;;;;;;;8.97;88.02;100082.50;5055101;28;20405;-85
2021/05/18 00:55:53;;;;;;;3.45;2.50;;;;;;;8.95;89.33;100078.47;5074733;28;20052;-84
2021/05/18 00:58:33;;;;;;;4.72;2.78;;;;;;;8.90;88.64;100073.09;5084439;28;20040;-85
2021/05/18 01:01:10;;;;;;;4.00;2.30;;;;;;;8.92;88.48;100081.75;5067371;28;20044;-85
2021/05/18 01:03:44;;;;;;;4.10;2.72;;;;;;;9.01;89.35;100085.47;5064144;28;20393;-85
2021/05/18 01:06:19;;;;;;;4.47;2.88;;;;;;;8.89;89.53;100082.31;5059741;28;20405;-85
2021/05/18 01:08:56;;;;;;;4.40;2.63;;;;;;;8.88;88.82;100081.53;5074618;28;20426;-85
2021/05/18 01:11:27;;;;;;;4.13;2.40;;;;;;;8.96;89.43;100091.78;5061983;28;20048;-84
2021/05/18 01:14:04;;;;;;;3.45;2.47;;;;;;;8.99;88.60;100095.78;5075004;28;20053;-85
2021/05/18 01:16:41;;;;;;;4.53;2.70;;;;;;;9.04;88.80;100095.75;5058737;28;20045;-85
2021/05/18 01:19:15;;;;;;;4.10;2.65;;;;;;;8.99;88.83;100107.47;5063758;28;20037;-86
2021/05/18 01:21:49;;;;;;;6.15;2.55;;;;;;;8.94;88.71;100104.81;5064673;28;20421;-85
2021/05/18 01:24:22;;;;;;;3.85;2.30;;;;;;;9.03;88.85;100118.56;5070368;28;20605;-86
2021/05/18 01:26:50;;;;;;;5.10;2.83;;;;;;;9.05;88.86;100124.53;5063964;28;20045;-85
2021/05/18 01:29:24;;;;;;;4.20;2.35;;;;;;;8.94;88.30;100123.78;5063766;28;20063;-85
2021/05/18 01:31:56;;;;;;;5.18;2.30;;;;;;;8.91;88.25;100126.25;5064116;28;20047;-85
2021/05/18 01:34:29;;;;;;;3.75;2.22;;;;;;;8.93;88.33;100127.59;5070738;28;20061;-84
2021/05/18 01:37:03;;;;;;;3.72;2.17;;;;;;;8.96;88.29;100134.38;5068987;28;20055;-85
2021/05/18 01:39:51;;;;;;;4.75;2.10;;;;;;;8.83;87.79;100116.81;5053755;28;20052;-85
2021/05/18 01:42:48;;;;;;;4.68;2.15;;;;;;;8.91;88.15;100137.09;5063052;28;20057;-84
2021/05/18 01:45:23;;;;;;;3.85;2.00;;;;;;;8.75;88.58;100141.84;5082144;28;20056;-85
2021/05/18 01:47:59;;;;;;;4.20;2.20;;;;;;;8.78;88.43;100142.09;5068389;28;20551;-85
2021/05/18 01:50:41;;;;;;;2.88;1.73;;;;;;;8.67;89.13;100133.22;5060582;28;20059;-84
2021/05/18 01:53:10;;;;;;;3.67;1.90;;;;;;;8.65;87.47;100142.72;5060500;28;20045;-85
2021/05/18 01:55:53;;;;;;;4.00;1.90;;;;;;;8.68;88.48;100142.94;5060337;28;20041;-85
2021/05/18 01:58:26;;;;;;;3.45;1.83;;;;;;;8.60;88.48;100150.88;5075665;28;20047;-85
2021/05/18 02:01:06;;;;;;;4.55;1.73;;;;;;;8.56;88.24;100153.34;5057108;28;20053;-85
2021/05/18 02:03:39;;;;;;;3.30;1.73;;;;;;;8.57;88.16;100157.66;5069435;28;20063;-83
2021/05/18 02:06:14;;;;;;;4.60;1.90;;;;;;;8.56;88.42;100166.91;5067562;28;20056;-85
2021/05/18 02:08:59;;;;;;;4.10;1.98;;;;;;;8.62;87.75;100159.56;5057189;28;20044;-85
2021/05/18 02:11:38;;;;;;;3.92;1.95;;;;;;;8.59;88.65;100170.94;5081648;28;20059;-85
2021/05/18 02:14:18;;;;;;;3.65;1.98;;;;;;;8.53;87.03;100180.22;5076967;28;20045;-85
2021/05/18 02:17:00;;;;;;;4.18;1.88;;;;;;;8.44;87.65;100177.25;5058231;28;20520;-85
2021/05/18 02:20:06;;;;;;;3.97;2.20;;;;;;;8.44;88.69;100188.09;5061471;28;20585;-86
2021/05/18 02:25:40;;;;;;;4.53;2.10;;;;;;;8.48;87.97;100202.75;5055589;28;20052;-84
2021/05/18 02:28:35;;;;;;;3.60;1.70;;;;;;;8.34;87.92;100178.91;5058177;28;20053;-84
2021/05/18 02:31:09;;;;;;;3.88;2.10;;;;;;;8.43;87.67;100202.72;5063827;28;20049;-83
2021/05/18 02:33:42;;;;;;;4.90;2.00;;;;;;;8.48;88.70;100202.75;5059446;28;20056;-85
2021/05/18 02:36:16;;;;;;;4.10;2.17;;;;;;;8.41;88.38;100208.44;5070475;28;20392;-85
2021/05/18 02:38:49;;;;;;;4.88;2.53;;;;;;;8.38;88.81;100202.72;5089493;28;20067;-85
2021/05/18 02:41:24;;;;;;;3.03;2.08;;;;;;;8.24;87.54;100197.88;5078620;28;20045;-85
2021/05/18 02:44:04;;;;;;;5.33;2.33;;;;;;;8.30;88.37;100210.34;5068897;28;20047;-85
2021/05/18 02:49:27;;;;;;;4.32;2.53;;;;;;;8.21;87.22;100219.34;5059315;28;20041;-86
2021/05/18 02:52:00;;;;;;;5.82;2.78;;;;;;;8.09;87.02;100216.91;5059788;28;20041;-84
2021/05/18 02:54:38;;;;;;;3.63;2.10;;;;;;;8.08;87.51;100231.53;5064154;28;20055;-85
2021/05/18 02:57:13;;;;;;;5.03;2.33;;;;;;;8.09;86.72;100228.59;5056634;28;20358;-85
2021/05/18 02:59:46;;;;;;;4.32;2.28;;;;;;;7.98;86.58;100232.38;5061286;28;20493;-84
2021/05/18 03:02:21;;;;;;;4.38;2.70;;;;;;;7.94;86.91;100228.59;5067585;28;20041;-85
2021/05/18 03:04:54;;;;;;;3.55;2.40;;;;;;;7.96;86.82;100237.28;5064568;28;20053;-86
2021/05/18 03:07:27;;;;;;;5.30;2.65;;;;;;;7.76;87.21;100217.25;5059649;28;20051;-85
2021/05/18 03:10:02;;;;;;;2.65;1.80;;;;;;;7.86;85.08;100231.84;5063543;28;20485;-85
2021/05/18 03:12:36;;;;;;;3.70;2.20;;;;;;;7.82;85.95;100237.81;5061400;28;20045;-85
2021/05/18 03:15:09;;;;;;;3.60;2.22;;;;;;;7.81;86.99;100252.44;5062256;28;20049;-86
2021/05/18 03:17:42;;;;;;;4.93;2.20;;;;;;;7.76;86.86;100247.03;5056850;28;20505;-86
2021/05/18 03:20:13;;;;;;;;;;;;;;;7.88;86.08;100259.50;5073012;28;20048;-85
2021/05/18 03:22:46;;;;;;;2.97;1.95;;;;;;;7.80;86.31;100267.09;5073650;28;19920;-85
2021/05/18 03:25:19;;;;;;;5.57;2.17;;;;;;;7.81;86.56;100260.56;5069884;28;20044;-85
2021/05/18 03:27:57;;;;;;;4.55;2.60;;;;;;;7.80;87.34;100263.53;5057346;28;20044;-86
2021/05/18 03:30:39;;;;;;;4.05;2.00;;;;;;;7.78;86.53;100274.66;5070250;28;20041;-85
2021/05/18 03:36:04;;;;;;;6.43;2.50;;;;;;;7.85;87.48;100268.16;5064803;28;20053;-85
2021/05/18 03:38:39;;;;;;;3.90;2.35;;;;;;;7.85;87.03;100277.09;5065512;28;20049;-85
2021/05/18 03:41:15;;;;;;;3.30;2.05;;;;;;;7.68;87.30;100274.66;5063762;28;20047;-86
2021/05/18 03:43:55;;;;;;;2.80;1.88;;;;;;;7.75;87.00;100274.41;5086835;28;20053;-86
2021/05/18 03:52:23;;;;;;;4.35;2.40;;;;;;;7.79;86.73;100289.03;5061755;28;20056;-86
2021/05/18 03:55:07;;;;;;;3.85;2.22;;;;;;;7.78;86.29;100287.41;5060780;28;20053;-85
2021/05/18 04:03:22;;;;;;;3.47;2.28;;;;;;;7.77;86.90;100294.69;5057681;28;20413;-85
2021/05/18 04:11:53;;;;;;;3.30;2.47;;;;;;;7.81;87.20;100300.41;5057155;28;20055;-86
2021/05/18 04:17:34;;;;;;;4.65;2.80;;;;;;;7.84;87.14;100302.56;5029039;28;20049;-84
2021/05/18 04:20:21;;;;;;;5.15;2.90;;;;;;;7.83;87.04;100306.38;5038113;28;20413;-84
2021/05/18 04:23:10;;;;;;;5.18;2.90;;;;;;;7.84;88.29;100305.28;5054883;28;20061;-86
2021/05/18 04:49:05;;;;;;;4.78;2.80;;;;;;;8.04;86.10;100336.16;5068504;28;20077;-86
2021/05/18 04:51:42;;;;;;;4.75;2.50;;;;;;;8.03;85.43;100321.00;5068541;28;20056;-86
2021/05/18 05:00:00;;;;;;;4.50;2.40;;;;;;;8.22;86.00;100343.75;5055085;28;20048;-86
2021/05/18 05:08:18;;;;;;;3.72;2.08;;;;;;;10.89;77.50;100333.19;5058217;28;20049;-85
2021/05/18 05:16:44;;;;;;;4.30;1.55;;;;;;;13.96;66.27;100342.78;5000965;28;20053;-87
2021/05/18 05:19:11;;;;;;;3.30;1.55;;;;;;;13.70;65.54;100351.59;5001945;28;20042;-87
2021/05/18 05:21:44;;;;;;;2.63;1.33;;;;;;;14.69;62.92;100345.31;4999170;28;20684;-86
2021/05/18 05:24:25;;;;;;;3.70;1.35;;;;;;;14.58;60.60;100349.41;5000704;28;20384;-88
2021/05/18 05:26:58;;;;;;;2.22;1.10;;;;;;;13.60;63.58;100352.66;4998138;28;20066;-87
2021/05/18 05:29:31;;;;;;;2.90;1.27;;;;;;;14.37;59.10;100349.97;5058166;28;20041;-87
2021/05/18 05:32:04;;;;;;;2.30;1.10;;;;;;;14.35;63.14;100360.44;5078411;28;20057;-86
2021/05/18 05:34:37;;;;;;;2.55;1.05;;;;;;;12.79;64.81;100358.69;5075786;28;20053;-88
2021/05/18 05:37:06;;;;;;;2.25;1.20;;;;;;;12.27;67.28;100369.69;5065048;28;20404;-86
2021/05/18 05:39:39;;;;;;;1.55;1.02;;;;;;;11.52;68.88;100374.09;5075625;28;20049;-86
2021/05/18 05:42:12;;;;;;;2.40;1.20;;;;;;;11.59;70.99;100371.81;5061437;28;20045;-88
2021/05/18 05:44:40;;;;;;;2.92;1.10;;;;;;;11.29;72.22;100373.03;5069926;28;20389;-86
2021/05/18 05:47:08;;;;;;;3.78;1.20;;;;;;;11.18;70.98;100375.06;5058103;28;20397;-84
2021/05/18 05:49:41;;;;;;;2.08;1.10;;;;;;;10.58;70.20;100384.44;5053903;28;22020;-86
2021/05/18 05:52:19;;;;;;;3.05;1.10;;;;;;;10.50;73.84;100368.72;5065905;28;20040;-84
2021/05/18 05:54:54;;;;;;;4.28;1.30;;;;;;;10.68;74.75;100378.06;5065096;28;20044;-84
2021/05/18 05:57:26;;;;;;;2.22;1.10;;;;;;;10.38;73.41;100382.69;5061739;28;20044;-85
2021/05/18 05:59:59;;;;;;;3.13;1.30;;;;;;;10.42;75.41;100381.03;5065778;28;20052;-85
2021/05/18 06:02:39;;;;;;;;;;;;;;;10.36;73.22;100380.25;5057951;28;20029;-84
2021/05/18 06:05:12;;;;;;;2.78;1.20;;;;;;;10.24;74.73;100371.63;5061235;28;19921;-91
2021/05/18 06:07:45;;;;;;;2.78;1.10;;;;;;;10.52;74.41;100378.22;5081431;28;20056;-87
2021/05/18 06:10:24;;;;;;;2.58;1.20;;;;;;;10.35;73.44;100372.41;5058825;28;20048;-86
2021/05/18 06:47:13;;;;;;;2.22;0.90;;;;;;;11.15;72.45;100398.25;5069551;28;20677;-84
2021/05/18 06:49:55;;;;;;;1.42;0.82;;;;;;;11.44;70.16;100410.16;5055902;28;20067;-85
2021/05/18 06:52:28;;;;;;;2.30;1.00;;;;;;;11.07;69.67;100412.50;5054618;28;20060;-84
2021/05/18 06:55:01;;;;;;;1.20;0.80;;;;;;;11.10;69.47;100411.09;5076026;28;20052;-87
2021/05/18 06:57:30;;;;;;;;;;;;;;;10.96;69.28;100419.97;5062044;28;20053;-86
2021/05/18 07:00:08;;;;;;;0.63;0.63;;;;;;;10.83;71.54;100420.66;5058745;28;19928;-84
2021/05/18 07:02:37;;;;;;;1.65;0.70;;;;;;;10.81;70.18;100417.41;5054863;28;20747;-85
2021/05/18 07:05:15;;;;;;;1.30;0.70;;;;;;;10.93;68.79;100419.75;5057722;28;20045;-85
2021/05/18 07:07:52;;;;;;;1.27;0.70;;;;;;;10.95;67.65;100425.69;5070772;28;20485;-84
2021/05/18 07:10:19;;;;;;;1.75;0.75;;;;;;;11.30;67.25;100427.22;5060258;28;20057;-89
2021/05/18 07:12:47;;;;;;;;;;;;;;;11.17;67.39;100433.34;5051750;28;20064;-84
2021/05/18 07:15:16;;;;;;;1.88;0.60;;;;;;;10.84;66.55;100436.69;5054732;28;19932;-86
2021/05/18 07:17:48;;;;;;;1.60;0.80;;;;;;;10.80;68.64;100422.03;5061230;28;20091;-86
2021/05/18 07:20:22;;;;;;;2.05;0.88;;;;;;;11.07;67.75;100428.84;5054665;28;20436;-87
2021/05/18 07:22:56;;;;;;;1.23;0.70;;;;;;;10.94;67.05;100418.63;5072084;27;20487;-86
2021/05/18 07:25:29;;;;;;;1.23;0.75;;;;;;;10.95;68.11;100440.13;5060190;28;20405;-88
2021/05/18 07:28:06;;;;;;;1.10;0.70;;;;;;;10.60;68.80;100404.00;5059348;28;20053;-87
2021/05/18 07:30:40;;;;;;;1.25;0.70;;;;;;;11.32;66.97;100449.50;5054129;28;20855;-86
2021/05/18 07:33:13;;;;;;;1.25;0.70;;;;;;;11.39;66.98;100425.47;5071727;28;21370;-86
2021/05/18 07:35:53;;;;;;;1.55;0.73;;;;;;;11.74;64.85;100444.38;5051834;28;20389;-86
2021/05/18 07:38:21;;;;;;;2.00;0.80;;;;;;;11.67;66.83;100447.47;5072493;28;20048;-85
2021/05/18 07:40:48;;;;;;;1.38;0.80;;;;;;;11.27;66.54;100446.03;5053553;28;20075;-86
2021/05/18 07:43:25;;;;;;;2.22;0.85;;;;;;;11.03;67.21;100450.41;5078733;27;20056;-88
2021/05/18 07:46:02;;;;;;;1.20;0.80;;;;;;;11.17;69.15;100434.19;5052376;28;20067;-86
2021/05/18 07:48:39;;;;;;;2.60;0.80;;;;;;;11.73;66.65;100449.00;5057199;28;20048;-83
2021/05/18 07:51:17;;;;;;;1.02;0.70;;;;;;;11.56;64.49;100435.09;5055378;28;20048;-86
2021/05/18 07:59:38;;;;;;;2.13;0.95;;;;;;;11.45;67.94;100448.03;5048884;28;20060;-86
2021/05/18 08:02:22;;;;;;;1.95;0.88;;;;;;;11.32;68.21;100446.78;5049209;28;20052;-86
2021/05/18 08:07:46;;;;;;;1.48;0.60;;;;;;;11.25;66.77;100453.72;5066204;28;20049;-87
2021/05/18 08:10:21;;;;;;;1.58;0.63;;;;;;;11.34;63.73;100454.69;5058093;28;20592;-85
2021/05/18 08:12:49;;;;;;;2.10;0.77;;;;;;;11.33;71.52;100459.31;5052406;28;20078;-87
2021/05/18 08:15:38;;;;;;;2.58;0.77;;;;;;;11.29;67.59;100455.56;5054769;28;20511;-86
2021/05/18 08:18:26;;;;;;;1.50;0.75;;;;;;;11.12;65.87;100458.75;5052578;28;20044;-86
2021/05/18 08:21:39;;;;;;;1.88;0.68;;;;;;;11.27;66.44;100460.50;5067311;27;20059;-87
2021/05/18 10:36:08;;;;;;;0.40;0.40;;;;;;;12.17;62.47;100485.25;5058300;28;20055;-87
2021/05/18 10:38:40;;;;;;;0.40;0.40;;;;;;;12.25;64.39;100487.31;4985795;28;20064;-85
2021/05/18 10:41:12;;;;;;;1.13;0.50;;;;;;;12.12;65.18;100479.88;5064963;28;20056;-86
2021/05/18 10:43:54;;;;;;;0.43;0.40;;;;;;;11.91;61.35;100480.13;5052656;28;20060;-87
2021/05/18 10:46:29;;;;;;;0.35;0.35;;;;;;;11.83;65.06;100488.94;5054752;28;20044;-86
2021/05/18 10:49:08;;;;;;;0.38;0.30;;;;;;;11.63;65.74;100494.66;5058630;28;20044;-88
2021/05/18 10:51:56;;;;;;;0.63;0.40;;;;;;;11.46;65.91;100490.53;5051335;28;20056;-84
2021/05/18 10:54:37;;;;;;;0.40;0.40;;;;;;;11.54;67.41;100494.50;5053809;28;20576;-88
2021/05/18 10:57:16;;;;;;;0.80;0.43;;;;;;;11.39;66.32;100490.03;5068643;28;21276;-85
2021/05/18 10:59:54;;;;;;;0.38;0.38;;;;;;;11.41;63.27;100498.75;5033511;28;20053;-87
2021/05/18 11:02:25;;;;;;;0.77;0.55;;;;;;;11.43;65.92;100501.97;5030629;28;20049;-87
2021/05/18 11:05:07;;;;;;;0.70;0.70;;;;;;;11.41;64.85;100501.47;5034456;28;20060;-87
2021/05/18 11:07:41;;;;;;;0.40;0.40;;;;;;;11.10;65.78;100473.75;5043064;28;21402;-87
2021/05/18 11:10:17;;;;;;;0.60;0.40;;;;;;;11.34;65.21;100493.63;5035608;28;20053;-87
2021/05/18 11:12:54;;;;;;;0.57;0.40;;;;;;;11.44;66.28;100500.09;5033145;28;20060;-88
2021/05/18 11:15:23;;;;;;;0.55;0.55;;;;;;;11.46;65.39;100503.31;5036045;28;20421;-89
2021/05/18 11:17:56;;;;;;;0.50;0.40;;;;;;;11.31;65.31;100488.78;5034819;28;20057;-87
2021/05/18 11:20:45;;;;;;;0.30;0.30;;;;;;;11.35;64.51;100492.56;5039235;28;20052;-88
2021/05/18 11:23:22;;;;;;;0.50;0.50;;;;;;;11.48;66.37;100501.13;5033647;28;20068;-89
2021/05/18 11:25:57;;;;;;;0.50;0.40;;;;;;;11.57;65.85;100497.47;5050142;28;20060;-86
2021/05/18 11:28:37;;;;;;;0.40;0.40;;;;;;;11.62;65.59;100509.41;5030682;28;20056;-83
2021/05/18 11:31:13;;;;;;;0.40;0.40;;;;;;;11.42;65.08;100505.81;5030331;28;20048;-87
2021/05/18 11:33:45;;;;;;;0.82;0.40;;;;;;;11.44;64.85;100511.78;5037831;28;20049;-87
2021/05/18 11:36:33;;;;;;;0.52;0.50;;;;;;;11.49;64.85;100509.00;5048937;28;20057;-86
2021/05/18 11:39:11;;;;;;;0.40;0.40;;;;;;;11.36;66.60;100507.78;5031668;28;20053;-86
2021/05/18 11:41:41;;;;;;;0.40;0.40;;;;;;;11.40;64.25;100508.81;5027342;28;20063;-86
2021/05/18 11:44:18;;;;;;;1.52;0.40;;;;;;;11.35;67.90;100511.63;5029367;28;20089;-85
2021/05/18 11:46:52;;;;;;;0.40;0.40;;;;;;;11.57;64.52;100497.47;5046019;28;20068;-84
2021/05/18 11:49:25;;;;;;;0.40;0.40;;;;;;;11.82;65.87;100506.44;5032884;28;20064;-86
2021/05/18 11:51:55;;;;;;;0.50;0.40;;;;;;;12.06;64.46;100505.59;5033328;28;20060;-85
2021/05/18 11:54:30;;;;;;;0.43;0.40;;;;;;;12.15;65.64;100514.75;5038261;28;21284;-88
2021/05/18 11:57:03;;;;;;;0.45;0.40;;;;;;;12.36;63.80;100517.16;5031353;28;20048;-85
2021/05/18 11:59:36;;;;;;;0.50;0.40;;;;;;;12.53;66.91;100505.75;5033516;28;20061;-87
2021/05/18 12:02:11;;;;;;;0.47;0.40;;;;;;;12.47;61.58;100517.81;5030940;28;20049;-85
2021/05/18 12:04:45;;;;;;;0.30;0.30;;;;;;;12.21;58.22;100518.22;5048882;28;20063;-86
2021/05/18 12:07:20;;;;;;;0.30;0.30;;;;;;;12.25;61.88;100516.53;5029153;28;20053;-87
2021/05/18 12:09:48;;;;;;;0.40;0.40;;;;;;;12.16;63.94;100521.81;5034856;28;20063;-86
2021/05/18 12:12:24;;;;;;;0.47;0.40;;;;;;;12.00;63.37;100518.50;5045540;28;20071;-87
2021/05/18 12:15:00;;;;;;;0.68;0.40;;;;;;;11.87;64.10;100516.47;5035191;28;20051;-85
2021/05/18 12:17:36;;;;;;;0.73;0.40;;;;;;;11.87;64.79;100522.72;5037003;28;20048;-85
2021/05/18 12:20:13;;;;;;;0.30;0.30;;;;;;;11.77;62.39;100511.16;5035824;28;20049;-86
2021/05/18 12:22:51;;;;;;;0.40;0.40;;;;;;;11.86;63.93;100528.47;5029949;28;20060;-87
2021/05/18 12:25:31;;;;;;;0.30;0.30;;;;;;;11.94;66.60;100511.47;5028730;28;20049;-85
2021/05/18 12:28:09;;;;;;;0.40;0.40;;;;;;;12.36;65.25;100522.63;5027735;28;20049;-87
2021/05/18 12:30:43;;;;;;;0.35;0.35;;;;;;;12.74;65.98;100525.31;5033548;28;20405;-86
2021/05/18 12:33:12;;;;;;;0.32;0.30;;;;;;;12.82;62.50;100513.72;5027115;28;20057;-85
2021/05/18 12:35:42;;;;;;;0.30;0.30;;;;;;;12.81;57.96;100492.97;5026733;28;20064;-86
2021/05/18 12:38:16;;;;;;;0.30;0.20;;;;;;;13.10;62.51;100511.88;5001303;28;20503;-86
2021/05/18 12:41:01;;;;;;;1.45;0.30;;;;;;;12.90;64.21;100518.50;5025019;28;20059;-86
2021/05/18 12:43:39;;;;;;;0.35;0.35;;;;;;;12.65;60.68;100486.97;5043592;28;20061;-88
2021/05/18 12:46:15;;;;;;;0.68;0.30;;;;;;;12.73;62.15;100510.03;5049577;28;20053;-86
2021/05/18 12:48:47;;;;;;;0.30;0.30;;;;;;;12.49;62.18;100518.34;5030515;28;20061;-87
2021/05/18 12:51:17;;;;;;;0.65;0.30;;;;;;;12.57;63.57;100523.16;5028612;28;21810;-86
2021/05/18 12:54:20;;;;;;;0.30;0.30;;;;;;;12.23;61.96;100533.16;5036170;28;21271;-85
2021/05/18 12:57:00;;;;;;;0.25;0.25;;;;;;;12.04;65.13;100525.00;5051152;28;20044;-86
2021/05/18 12:59:35;;;;;;;0.43;0.38;;;;;;;12.01;64.68;100530.22;5051699;28;20065;-85
2021/05/18 13:02:26;;;;;;;0.32;0.32;;;;;;;11.91;66.09;100512.84;5032188;28;20505;-87
2021/05/18 13:05:19;;;;;;;0.30;0.30;;;;;;;12.22;64.47;100537.03;5053290;28;20079;-87
2021/05/18 13:08:06;;;;;;;0.30;0.30;;;;;;;12.37;64.32;100522.34;5029725;28;20434;-86
2021/05/18 13:13:45;;;;;;;0.30;0.30;;;;;;;12.90;64.92;100523.16;5020025;28;20063;-85
2021/05/18 13:16:20;;;;;;;0.30;0.30;;;;;;;13.17;56.97;100516.94;5033658;28;20160;-86
2021/05/18 13:18:56;;;;;;;0.40;0.40;;;;;;;13.48;58.33;100527.31;5030882;28;20053;-86
2021/05/18 13:21:33;;;;;;;0.20;0.20;;;;;;;13.59;58.26;100517.00;5030423;28;20045;-88
2021/05/18 13:27:00;;;;;;;1.38;0.57;;;;;;;14.00;57.34;100509.84;5029360;28;20045;-85
2021/05/18 13:29:34;;;;;;;0.45;0.30;;;;;;;13.63;56.12;100498.88;5037892;28;20070;-86
2021/05/18 13:32:04;;;;;;;0.30;0.30;;;;;;;13.51;59.04;100517.72;5032655;28;20075;-86
2021/05/18 13:34:37;;;;;;;0.43;0.20;;;;;;;13.54;56.06;100514.38;5044055;28;20510;-85
2021/05/18 13:37:05;;;;;;;0.43;0.30;;;;;;;13.66;55.88;100517.41;5012367;28;21968;-87
2021/05/18 13:39:38;;;;;;;0.28;0.22;;;;;;;13.46;58.92;100515.88;5033520;28;20049;-84
2021/05/18 13:42:11;;;;;;;0.50;0.30;;;;;;;12.91;57.17;100511.09;5030620;28;20057;-86
2021/05/18 13:44:44;;;;;;;0.20;0.20;;;;;;;13.20;61.60;100524.53;5027536;28;20079;-86
2021/05/18 13:47:17;;;;;;;0.28;0.28;;;;;;;13.51;56.85;100520.44;5035100;28;20041;-87
2021/05/18 13:49:45;;;;;;;0.40;0.30;;;;;;;13.56;54.62;100517.59;5034851;28;20127;-87
2021/05/18 13:52:17;;;;;;;0.20;0.20;;;;;;;13.90;56.54;100508.94;5043999;28;21381;-88
2021/05/18 13:54:51;;;;;;;0.20;0.20;;;;;;;13.79;56.59;100493.88;5027434;28;20593;-85
2021/05/18 13:57:27;;;;;;;0.30;0.30;;;;;;;14.34;54.85;100509.38;5030392;28;20067;-84
2021/05/18 13:59:55;;;;;;;0.20;0.20;;;;;;;14.77;55.06;100508.91;5031075;28;20076;-85
2021/05/18 14:02:28;;;;;;;0.20;0.20;;;;;;;14.46;52.38;100506.88;5033958;28;20485;-83
2021/05/18 14:05:02;;;;;;;0.30;0.30;;;;;;;14.43;49.81;100513.00;5028588;28;21325;-87
2021/05/18 14:10:47;;;;;;;0.20;0.20;;;;;;;14.17;53.90;100510.03;5020202;28;20053;-84
2021/05/18 14:13:21;;;;;;;0.30;0.30;;;;;;;14.31;56.56;100509.16;5033794;28;20603;-86
2021/05/18 14:15:54;;;;;;;0.20;0.20;;;;;;;14.20;52.03;100511.34;5028392;28;20052;-86
2021/05/18 14:18:27;;;;;;;0.20;0.20;;;;;;;14.21;55.93;100518.41;5029548;28;20564;-87
2021/05/18 14:21:02;;;;;;;0.20;0.20;;;;;;;14.16;58.99;100507.59;5027998;28;20057;-84
2021/05/18 14:23:40;;;;;;;0.20;0.20;;;;;;;14.15;56.06;100508.72;5045681;28;21418;-87
2021/05/18 14:26:15;;;;;;;0.40;0.40;;;;;;;14.02;57.94;100513.91;5034446;28;20049;-86
2021/05/18 14:28:49;;;;;;;0.20;0.20;;;;;;;13.90;56.00;100508.16;5035482;28;20061;-87
2021/05/18 14:31:17;;;;;;;0.52;0.30;;;;;;;13.74;57.77;100502.19;5028305;28;20120;-85
2021/05/18 14:33:50;;;;;;;0.20;0.20;;;;;;;13.61;56.67;100506.56;5033282;28;20107;-86
2021/05/18 14:36:24;;;;;;;0.30;0.20;;;;;;;13.53;55.32;100505.34;5037587;28;20044;-85
2021/05/18 14:39:25;;;;;;;0.32;0.20;;;;;;;13.70;57.69;100504.75;5018701;28;20057;-84
2021/05/18 14:44:39;;;;;;;0.68;0.20;;;;;;;13.68;58.70;100503.41;5028435;28;20067;-87
2021/05/18 14:47:17;;;;;;;0.20;0.20;;;;;;;13.72;53.10;100504.44;5029494;28;20065;-85
2021/05/18 14:55:26;;;;;;;0.20;0.20;;;;;;;13.32;56.43;100513.09;5030924;28;20049;-87
2021/05/18 14:57:54;;;;;;;0.10;0.10;;;;;;;13.31;56.72;100507.94;5026616;28;20489;-88
2021/05/18 15:00:28;;;;;;;0.20;0.20;;;;;;;13.08;56.74;100500.41;5041907;28;20057;-87
2021/05/18 15:03:00;;;;;;;0.20;0.20;;;;;;;12.80;59.86;100507.75;5032669;28;20068;-86
2021/05/18 15:05:33;;;;;;;0.30;0.30;;;;;;;12.87;60.60;100516.38;5030108;28;21622;-87
2021/05/18 15:08:07;;;;;;;0.30;0.20;;;;;;;12.93;61.44;100512.44;5032876;28;20049;-86
2021/05/18 15:10:44;;;;;;;0.30;0.28;;;;;;;12.72;59.25;100511.16;5036857;28;20096;-89
2021/05/18 15:13:17;;;;;;;0.22;0.22;;;;;;;12.71;59.60;100515.81;5053153;28;20052;-85
2021/05/18 15:15:47;;;;;;;;;;;;;;;12.70;60.00;100510.66;5033599;28;20075;-86
2021/05/18 15:18:20;;;;;;;0.30;0.30;;;;;;;12.65;60.64;100516.19;5035223;28;19932;-87
2021/05/18 15:20:53;;;;;;;0.20;0.20;;;;;;;12.70;63.47;100518.84;5037688;28;20053;-87
2021/05/18 15:23:27;;;;;;;0.20;0.20;;;;;;;12.74;64.36;100517.94;5032393;28;20057;-85
2021/05/18 15:26:00;;;;;;;0.25;0.15;;;;;;;12.79;62.98;100514.31;5031690;28;20052;-85
2021/05/18 15:28:33;;;;;;;0.47;0.20;;;;;;;12.56;62.78;100516.06;5048728;28;20053;-85
2021/05/18 15:31:01;;;;;;;0.20;0.20;;;;;;;12.61;62.16;100513.25;5034579;28;20060;-85
2021/05/18 15:33:34;;;;;;;0.40;0.20;;;;;;;12.51;63.15;100511.50;5036374;28;20057;-85
2021/05/18 15:36:07;;;;;;;0.55;0.25;;;;;;;12.61;62.91;100515.16;5034450;28;20057;-85
2021/05/18 15:38:38;;;;;;;0.20;0.20;;;;;;;12.66;62.70;100518.59;5003254;28;20885;-84
2021/05/18 15:41:11;;;;;;;0.20;0.20;;;;;;;12.56;64.00;100521.50;5031301;28;20064;-85
2021/05/18 15:43:50;;;;;;;0.20;0.20;;;;;;;12.80;64.31;100526.03;5035613;28;20941;-85
2021/05/18 15:46:19;;;;;;;0.55;0.20;;;;;;;12.85;62.68;100518.56;5053497;28;20546;-85
2021/05/18 15:48:51;;;;;;;0.77;0.25;;;;;;;12.67;62.37;100519.44;5036978;28;20060;-87
2021/05/18 15:51:22;;;;;;;;;;;;;;;12.98;61.74;100525.19;5032230;28;20493;-86
2021/05/18 15:53:50;;;;;;;0.20;0.20;;;;;;;13.03;59.21;100529.75;5034744;28;19929;-84
2021/05/18 15:56:24;;;;;;;0.20;0.20;;;;;;;12.80;60.05;100509.66;5028602;28;20060;-86
2021/05/18 15:58:58;;;;;;;0.20;0.20;;;;;;;12.83;62.61;100511.78;5031292;28;20056;-86
2021/05/18 16:01:31;;;;;;;0.20;0.20;;;;;;;12.80;63.64;100509.66;5032784;28;20068;-85
2021/05/18 16:04:00;;;;;;;0.20;0.20;;;;;;;12.69;63.42;100519.94;5052091;28;20056;-82
2021/05/18 16:06:32;;;;;;;0.20;0.20;;;;;;;12.88;59.71;100536.28;5036654;28;20370;-88
2021/05/18 16:09:01;;;;;;;0.20;0.20;;;;;;;12.63;60.27;100502.03;5037883;28;20732;-88
2021/05/18 16:11:29;;;;;;;0.40;0.28;;;;;;;12.72;61.20;100464.75;5045623;28;20061;-89
2021/05/18 16:13:58;;;;;;;0.20;0.20;;;;;;;14.00;56.21;100496.19;5037091;28;20486;-88
2021/05/18 16:16:34;;;;;;;0.20;0.20;;;;;;;14.38;57.43;100515.03;5029758;28;20056;-89
2021/05/18 16:19:03;;;;;;;0.30;0.30;;;;;;;14.98;53.94;100524.03;5036295;28;20049;-89
2021/05/18 16:21:32;;;;;;;0.38;0.20;;;;;;;14.81;55.29;100530.22;5035029;28;20061;-85
2021/05/18 16:24:08;;;;;;;0.20;0.20;;;;;;;14.09;56.42;100495.13;5049814;28;20065;-88
2021/05/18 16:26:36;;;;;;;0.43;0.20;;;;;;;14.32;55.43;100521.75;5031691;28;20056;-89
2021/05/18 16:29:05;;;;;;;0.20;0.20;;;;;;;13.68;58.66;100476.06;5030080;28;20119;-89
2021/05/18 16:31:34;;;;;;;0.13;0.13;;;;;;;13.77;59.70;100518.81;5030011;28;20476;-84